Time;durP1;ratioP1;P1;durP2;ratioP2;P2;SDS_P1;SDS_P2;PMS_P1;PMS_P2;Temp;Humidity;BMP_temperature;BMP_pressure;BME280_temperature;BME280_humidity;BME280_pressure;Samples;Min_cycle;Max_cycle;Signal;HPM_P1;HPM_P2
2022/03/08 00:00:29;;;;;;;;;;;;;;;-1.14;59.12;100885.53;5621850;31;35108;-86
2022/03/08 00:03:33;;;;;;;;;;;;;;;-1.09;59.14;100878.47;5622056;31;34429;-86
2022/03/08 00:06:35;;;;;;;;;;;;;;;-1.06;58.76;100893.91;5622115;31;35441;-85
2022/03/08 00:09:38;;;;;;;;;;;;;;;-0.99;58.92;100885.03;5621498;31;34978;-86
2022/03/08 00:12:40;;;;;;;;;;;;;;;-0.87;58.73;100885.50;5622893;31;35450;-86
2022/03/08 00:15:52;;;;;;;;;;;;;;;-0.97;59.91;100888.44;5622665;31;35013;-86
2022/03/08 00:18:55;;;;;;;;;;;;;;;-0.98;59.57;100876.34;5622407;31;35594;-86
2022/03/08 00:22:00;;;;;;;;;;;;;;;-0.90;59.47;100885.63;5624451;31;35462;-85
2022/03/08 00:25:03;;;;;;;;;;;;;;;-0.87;59.29;100878.56;5624400;31;35519;-85
2022/03/08 00:28:05;;;;;;;;;;;;;;;-0.77;59.61;100876.50;5623835;31;35621;-86
2022/03/08 00:31:10;;;;;;;;;;;;;;;-0.74;59.12;100876.38;5624788;31;34324;-86
2022/03/08 00:34:15;;;;;;;;;;;;;;;-0.83;60.23;100868.91;5624926;31;35502;-86
2022/03/08 00:37:17;;;;;;;;;;;;;;;-0.83;59.60;100863.69;5624257;31;34893;-86
2022/03/08 00:40:23;;;;;;;;;;;;;;;-0.87;60.23;100868.16;5624623;31;34009;-86
2022/03/08 00:43:28;;;;;;;;;;;;;;;-0.80;59.97;100863.59;5625238;31;35447;-86
2022/03/08 00:46:32;;;;;;;;;;;;;;;-0.67;59.82;100864.88;5625760;31;35104;-85
2022/03/08 00:49:38;;;;;;;;;;;;;;;-0.80;60.51;100858.41;5624830;31;34858;-86
2022/03/08 00:52:45;;;;;;;;;;;;;;;-0.90;60.72;100855.28;5624244;31;35016;-86
2022/03/08 00:55:47;;;;;;;;;;;;;;;-0.82;60.91;100860.19;5625011;31;34942;-85
2022/03/08 00:58:53;;;;;;;;;;;;;;;-0.95;61.36;100855.44;5624502;31;34713;-86
2022/03/08 01:01:55;;;;;;;;;;;;;;;-1.16;61.88;100859.63;5624873;31;34210;-85
2022/03/08 01:04:58;;;;;;;;;;;;;;;-1.41;63.84;100862.22;5624672;31;34647;-86
2022/03/08 01:08:01;;;;;;;;;;;;;;;-1.62;64.39;100854.22;5624598;31;35647;-86
2022/03/08 01:11:03;;;;;;;;;;;;;;;-1.69;64.85;100852.72;5624492;31;34208;-85
2022/03/08 01:14:07;;;;;;;;;;;;;;;-1.79;65.61;100852.16;5624171;31;34724;-85
2022/03/08 01:17:10;;;;;;;;;;;;;;;-1.84;65.73;100853.19;5624452;31;34249;-85
2022/03/08 01:20:14;;;;;;;;;;;;;;;-1.95;65.91;100849.19;5624230;31;34627;-86
2022/03/08 01:23:17;;;;;;;;;;;;;;;-1.98;66.84;100857.09;5624249;31;35546;-85
2022/03/08 01:26:20;;;;;;;;;;;;;;;-2.10;68.03;100844.50;5624542;31;35511;-85
2022/03/08 01:29:25;;;;;;;;;;;;;;;-2.23;67.59;100854.37;5625753;31;34827;-85
2022/03/08 01:32:27;;;;;;;;;;;;;;;-2.27;68.86;100848.44;5623889;31;36277;-85
2022/03/08 01:35:30;;;;;;;;;;;;;;;-2.38;68.81;100845.31;5624538;31;34053;-85
2022/03/08 01:38:32;;;;;;;;;;;;;;;-2.34;68.67;100844.34;5624748;31;34538;-85
2022/03/08 01:41:35;;;;;;;;;;;;;;;-2.18;68.61;100850.75;5624451;31;35404;-85
2022/03/08 01:44:41;;;;;;;;;;;;;;;-2.19;68.14;100849.03;5624390;31;34481;-85
2022/03/08 01:47:46;;;;;;;;;;;;;;;-2.41;69.04;100847.97;5624612;31;34208;-86
2022/03/08 01:51:03;;;;;;;;;;;;;;;-2.29;68.53;100845.03;5623394;31;35373;-85
2022/03/08 01:54:06;;;;;;;;;;;;;;;-2.32;68.83;100847.72;5624539;31;34643;-86
2022/03/08 01:57:09;;;;;;;;;;;;;;;-2.10;68.22;100847.09;5624351;31;35042;-85
2022/03/08 02:00:13;;;;;;;;;;;;;;;-2.18;68.06;100850.75;5623720;31;34565;-85
2022/03/08 02:03:15;;;;;;;;;;;;;;;-2.38;68.91;100838.41;5624586;31;34277;-86
2022/03/08 02:06:18;;;;;;;;;;;;;;;-2.22;68.17;100838.78;5612458;31;34358;-86
2022/03/08 02:09:21;;;;;;;;;;;;;;;-2.23;68.26;100842.28;5623634;31;34588;-85
2022/03/08 02:12:26;;;;;;;;;;;;;;;-2.31;68.33;100843.37;5624931;31;34549;-85
2022/03/08 02:15:29;;;;;;;;;;;;;;;-2.53;69.19;100838.84;5624646;31;35023;-85
2022/03/08 02:18:32;;;;;;;;;;;;;;;-2.71;70.62;100840.19;5624927;31;35033;-85
2022/03/08 02:21:38;;;;;;;;;;;;;;;-2.88;71.30;100845.84;5624371;31;35499;-85
2022/03/08 02:24:41;;;;;;;;;;;;;;;-2.85;71.80;100846.59;5624141;31;35357;-85
2022/03/08 02:27:47;;;;;;;;;;;;;;;-2.88;71.43;100841.53;5624270;31;34683;-86
2022/03/08 02:30:50;;;;;;;;;;;;;;;-2.89;71.90;100846.72;5623475;31;35700;-86
2022/03/08 02:33:53;;;;;;;;;;;;;;;-2.88;72.07;100849.31;5623995;31;34144;-85
2022/03/08 02:37:07;;;;;;;;;;;;;;;-2.78;72.00;100838.69;5624410;31;34986;-85
2022/03/08 02:40:13;;;;;;;;;;;;;;;-2.78;72.38;100838.69;5624233;31;35566;-86
2022/03/08 02:43:16;;;;;;;;;;;;;;;-2.78;72.42;100841.28;5623268;31;35543;-86
2022/03/08 02:46:18;;;;;;;;;;;;;;;-2.84;72.70;100840.53;5624651;31;34494;-85
2022/03/08 02:49:22;;;;;;;;;;;;;;;-2.95;74.28;100833.09;5625664;31;34926;-86
2022/03/08 02:52:24;;;;;;;;;;;;;;;-2.96;73.74;100835.69;5624602;31;35341;-85
2022/03/08 02:55:28;;;;;;;;;;;;;;;-2.99;73.88;100840.97;5624089;31;34311;-85
2022/03/08 02:58:30;;;;;;;;;;;;;;;-3.06;73.90;100837.69;5623896;31;34607;-86
2022/03/08 03:01:36;;;;;;;;;;;;;;;-3.15;74.35;100841.38;5623413;31;35601;-86
2022/03/08 03:04:39;;;;;;;;;;;;;;;-2.89;73.66;100842.41;5624267;31;34613;-86
2022/03/08 03:07:42;;;;;;;;;;;;;;;-3.03;73.97;100845.34;5624013;31;34034;-86
2022/03/08 03:10:44;;;;;;;;;;;;;;;-3.23;74.69;100853.66;5623836;31;35038;-86
2022/03/08 03:13:49;;;;;;;;;;;;;;;-3.32;75.46;100849.56;5617316;31;35065;-85
2022/03/08 03:16:51;;;;;;;;;;;;;;;-3.49;75.89;100846.56;5616721;31;34986;-85
2022/03/08 03:19:55;;;;;;;;;;;;;;;-3.58;76.71;100847.63;5624214;31;34565;-85
2022/03/08 03:22:58;;;;;;;;;;;;;;;-3.70;76.74;100845.34;5623492;31;34663;-85
2022/03/08 03:26:01;;;;;;;;;;;;;;;-3.70;77.72;100853.09;5623351;31;34488;-86
2022/03/08 03:29:05;;;;;;;;;;;;;;;-3.77;78.28;100847.22;5623119;31;34696;-85
2022/03/08 03:32:10;;;;;;;;;;;;;;;-3.63;77.75;100841.72;5623140;31;34460;-85
2022/03/08 03:35:13;;;;;;;;;;;;;;;-3.72;77.86;100851.41;5623262;31;35086;-85
2022/03/08 03:38:18;;;;;;;;;;;;;;;-3.91;78.39;100845.81;5622752;31;36219;-85
2022/03/08 03:41:21;;;;;;;;;;;;;;;-4.01;79.52;100849.47;5623129;31;35481;-85
2022/03/08 03:44:24;;;;;;;;;;;;;;;-4.07;79.77;100850.47;5623948;31;34646;-85
2022/03/08 03:47:28;;;;;;;;;;;;;;;-4.11;79.76;100848.81;5622212;31;35427;-85
2022/03/08 03:50:31;;;;;;;;;;;;;;;-4.16;80.26;100850.69;5623353;31;34453;-85
2022/03/08 03:53:34;;;;;;;;;;;;;;;-4.18;81.25;100852.44;5623787;31;35281;-85
2022/03/08 03:56:36;;;;;;;;;;;;;;;-4.24;82.23;100853.44;5625603;31;34965;-85
2022/03/08 03:59:40;;;;;;;;;;;;;;;-4.36;83.14;100854.53;5626122;31;35614;-86
2022/03/08 04:02:44;;;;;;;;;;;;;;;-4.13;81.59;100866.12;5626189;31;35836;-86
2022/03/08 04:05:47;;;;;;;;;;;;;;;-4.02;80.88;100858.13;5626142;31;35062;-86
2022/03/08 04:08:49;;;;;;;;;;;;;;;-4.14;81.14;100858.38;5626359;31;35540;-86
2022/03/08 04:11:52;;;;;;;;;;;;;;;-4.25;81.65;100861.22;5625271;31;34457;-86
2022/03/08 04:14:54;;;;;;;;;;;;;;;-3.92;79.83;100869.12;5624665;31;35494;-86
2022/03/08 04:17:57;;;;;;;;;;;;;;;-4.01;80.38;100869.31;5624410;31;35596;-86
2022/03/08 04:20:59;;;;;;;;;;;;;;;-4.17;80.54;100861.91;5624385;31;34204;-86
2022/03/08 04:24:02;;;;;;;;;;;;;;;-4.17;80.93;100866.22;5623927;31;35475;-86
2022/03/08 04:27:05;;;;;;;;;;;;;;;-4.18;82.24;100862.78;5623938;31;34068;-86
2022/03/08 04:30:09;;;;;;;;;;;;;;;-4.17;82.18;100869.66;5624355;31;34448;-86
2022/03/08 04:33:12;;;;;;;;;;;;;;;-4.04;81.35;100873.66;5624923;31;34727;-86
2022/03/08 04:36:15;;;;;;;;;;;;;;;-3.96;80.69;100862.31;5624496;31;36798;-86
2022/03/08 04:39:30;;;;;;;;;;;;;;;-3.95;80.86;100864.00;5610889;31;35410;-86
2022/03/08 04:42:33;;;;;;;;;;;;;;;-4.04;81.33;100860.75;5623140;31;35125;-86
2022/03/08 04:45:35;;;;;;;;;;;;;;;-4.17;81.94;100856.72;5623804;31;35373;-86
2022/03/08 04:48:38;;;;;;;;;;;;;;;-4.31;82.28;100856.16;5623549;31;34952;-86
2022/03/08 04:51:41;;;;;;;;;;;;;;;-4.35;83.14;100851.09;5622903;31;35516;-86
2022/03/08 04:54:43;;;;;;;;;;;;;;;-4.43;83.28;100852.97;5622671;31;34050;-87
2022/03/08 04:57:46;;;;;;;;;;;;;;;-4.52;83.60;100855.72;5623862;31;35401;-86
2022/03/08 05:00:49;;;;;;;;;;;;;;;-4.60;84.49;100855.88;5623196;31;35350;-86
2022/03/08 05:03:52;;;;;;;;;;;;;;;-4.66;85.03;100854.28;5623287;31;34428;-87
2022/03/08 05:06:55;;;;;;;;;;;;;;;-4.74;85.67;100853.59;5622657;31;34569;-86
2022/03/08 05:09:57;;;;;;;;;;;;;;;-4.83;86.49;100849.44;5622988;31;34676;-86
2022/03/08 05:13:00;;;;;;;;;;;;;;;-4.92;87.01;100849.63;5623590;31;35446;-87
2022/03/08 05:16:05;;;;;;;;;;;;;;;-4.88;86.76;100855.56;5623458;31;35279;-86
2022/03/08 05:19:10;;;;;;;;;;;;;;;-4.89;87.65;100859.03;5623644;31;34506;-86
2022/03/08 05:22:12;;;;;;;;;;;;;;;-4.90;87.95;100847.03;5625029;31;34768;-86
2022/03/08 05:25:17;;;;;;;;;;;;;;;-4.81;89.24;100846.84;5625412;31;35554;-86
2022/03/08 05:28:25;;;;;;;;;;;;;;;-4.89;88.98;100852.16;5623201;31;34641;-87
2022/03/08 05:31:28;;;;;;;;;;;;;;;-4.82;88.51;100856.31;5622904;31;34619;-86
2022/03/08 05:34:35;;;;;;;;;;;;;;;-4.75;88.15;100857.03;5621923;31;33935;-86
2022/03/08 05:37:38;;;;;;;;;;;;;;;-4.62;87.54;100856.81;5621662;31;35329;-86
2022/03/08 05:40:40;;;;;;;;;;;;;;;-4.51;87.09;100862.59;5621113;31;34166;-87
2022/03/08 05:43:45;;;;;;;;;;;;;;;-4.43;86.59;100857.28;5620646;31;34339;-87
2022/03/08 05:46:54;;;;;;;;;;;;;;;-4.33;85.31;100865.72;5618050;31;34195;-86
2022/03/08 05:49:57;;;;;;;;;;;;;;;-4.35;85.92;100861.41;5616570;31;34606;-87
2022/03/08 05:52:59;;;;;;;;;;;;;;;-4.35;86.04;100856.25;5621748;31;34893;-87
2022/03/08 05:56:03;;;;;;;;;;;;;;;-4.33;86.81;100861.38;5621926;31;34449;-88
2022/03/08 05:59:09;;;;;;;;;;;;;;;-4.31;86.29;100866.50;5620712;31;35435;-86
2022/03/08 06:02:12;;;;;;;;;;;;;;;-4.26;87.40;100860.34;5620784;31;34640;-86
2022/03/08 06:05:15;;;;;;;;;;;;;;;-4.18;87.30;100870.53;5621743;31;34782;-86
2022/03/08 06:08:18;;;;;;;;;;;;;;;-3.87;84.74;100864.66;5622387;31;34771;-86
2022/03/08 06:11:24;;;;;;;;;;;;;;;-3.85;84.03;100868.06;5623557;31;36406;-86
2022/03/08 06:14:27;;;;;;;;;;;;;;;-3.92;85.66;100874.28;5622048;31;34256;-88
2022/03/08 06:17:30;;;;;;;;;;;;;;;-3.95;85.96;100869.19;5622050;31;35523;-86
2022/03/08 06:20:32;;;;;;;;;;;;;;;-3.94;86.12;100876.88;5623112;31;36834;-86
2022/03/08 06:23:34;;;;;;;;;;;;;;;-3.67;83.57;100876.31;5620553;31;35005;-86
2022/03/08 06:26:37;;;;;;;;;;;;;;;-3.50;82.55;100881.91;5621878;31;34463;-86
2022/03/08 06:29:44;;;;;;;;;;;;;;;-3.46;82.23;100886.16;5622056;31;34483;-86
2022/03/08 06:32:49;;;;;;;;;;;;;;;-3.39;82.51;100893.75;5622342;31;34196;-86
2022/03/08 06:35:55;;;;;;;;;;;;;;;-3.41;82.12;100898.97;5622873;31;34850;-85
2022/03/08 06:38:58;;;;;;;;;;;;;;;-3.37;82.36;100902.31;5620896;31;35535;-86
2022/03/08 06:42:01;;;;;;;;;;;;;;;-3.41;82.97;100891.19;5620893;31;34173;-85
2022/03/08 06:45:04;;;;;;;;;;;;;;;-3.21;82.78;100901.06;5623355;31;35233;-86
2022/03/08 06:48:06;;;;;;;;;;;;;;;-3.01;82.04;100902.28;5621274;31;35444;-85
2022/03/08 06:51:09;;;;;;;;;;;;;;;-2.65;81.63;100907.41;5583616;31;35594;-86
2022/03/08 06:54:12;;;;;;;;;;;;;;;-2.34;81.20;100917.75;5590678;31;35572;-85
2022/03/08 06:57:17;;;;;;;;;;;;;;;-1.96;79.20;100914.09;5587283;31;34377;-86
2022/03/08 07:00:23;;;;;;;;;;;;;;;-1.75;77.67;100910.84;5599337;31;34136;-86
2022/03/08 07:03:45;;;;;;;;;;;;;;;-1.58;77.36;100918.09;5599600;31;35396;-86
2022/03/08 07:06:48;;;;;;;;;;;;;;;-1.32;75.53;100913.84;5599489;31;34652;-86
2022/03/08 07:09:51;;;;;;;;;;;;;;;-1.07;73.50;100923.41;5599478;31;34249;-85
2022/03/08 07:12:53;;;;;;;;;;;;;;;-0.99;73.04;100921.41;5600086;31;34413;-85
2022/03/08 07:15:56;;;;;;;;;;;;;;;-1.28;73.64;100919.75;5601572;31;34110;-86
2022/03/08 07:18:59;;;;;;;;;;;;;;;-1.30;73.99;100927.63;5600914;31;34547;-85
2022/03/08 07:22:02;;;;;;;;;;;;;;;-1.32;74.61;100918.16;5600356;31;34511;-85
2022/03/08 07:25:08;;;;;;;;;;;;;;;-1.28;74.47;100925.78;5599715;31;36957;-86
2022/03/08 07:28:11;;;;;;;;;;;;;;;-1.30;74.67;100922.41;5601863;31;34587;-85
2022/03/08 07:31:36;;;;;;;;;;;;;;;-1.29;74.73;100924.09;5604560;31;34538;-85
2022/03/08 07:34:38;;;;;;;;;;;;;;;-1.25;74.83;100925.69;5603212;31;35057;-85
2022/03/08 07:37:43;;;;;;;;;;;;;;;-1.14;74.17;100927.09;5603735;31;35608;-85
2022/03/08 07:40:46;;;;;;;;;;;;;;;-1.13;74.17;100921.00;5591788;31;35062;-85
2022/03/08 07:43:49;;;;;;;;;;;;;;;-1.11;74.47;100925.25;5583667;32;34009;-85
2022/03/08 07:46:51;;;;;;;;;;;;;;;-0.85;73.68;100927.88;5584627;32;34555;-85
2022/03/08 07:49:54;;;;;;;;;;;;;;;-0.66;73.31;100923.75;5608158;31;35125;-87
2022/03/08 07:52:59;;;;;;;;;;;;;;;-0.57;72.50;100921.72;5624866;31;34151;-85
2022/03/08 07:56:02;;;;;;;;;;;;;;;-0.48;72.39;100931.78;5626095;31;34028;-85
2022/03/08 07:59:11;;;;;;;;;;;;;;;-0.28;71.36;100925.03;5624792;31;35006;-85
2022/03/08 08:02:14;;;;;;;;;;;;;;;-0.02;70.07;100924.87;5624982;31;34428;-85
2022/03/08 08:05:18;;;;;;;;;;;;;;;0.21;68.14;100923.16;5623079;31;34557;-85
2022/03/08 08:08:20;;;;;;;;;;;;;;;0.35;68.12;100917.41;5623354;31;35041;-86
2022/03/08 08:11:23;;;;;;;;;;;;;;;0.38;68.09;100917.28;5624396;31;34906;-85
2022/03/08 08:14:27;;;;;;;;;;;;;;;0.53;68.10;100913.22;5623392;31;34336;-85
2022/03/08 08:17:30;;;;;;;;;;;;;;;0.77;66.54;100918.34;5623995;31;34588;-85
2022/03/08 08:20:33;;;;;;;;;;;;;;;1.01;65.08;100926.06;5625091;31;35117;-85
2022/03/08 08:23:35;;;;;;;;;;;;;;;1.04;64.07;100915.53;5625086;31;34447;-85
2022/03/08 08:26:38;;;;;;;;;;;;;;;1.27;63.25;100914.53;5623889;31;34484;-85
